Time;durP1;ratioP1;P1;durP2;ratioP2;P2;SDS_P1;SDS_P2;PMS_P1;PMS_P2;Temp;Humidity;BMP_temperature;BMP_pressure;BME280_temperature;BME280_humidity;BME280_pressure;Samples;Min_cycle;Max_cycle;Signal;HPM_P1;HPM_P2
2022/03/26 00:00:16;;;;;;;111.45;51.28;;;8.20;99.90;;;;;;5044537;28;20104;-73
2022/03/26 00:02:43;;;;;;;104.90;50.35;;;8.20;99.90;;;;;;5074621;28;20041;-72
2022/03/26 00:05:09;;;;;;;107.65;52.17;;;8.20;99.90;;;;;;5062991;28;20045;-72
2022/03/26 00:07:34;;;;;;;113.07;52.65;;;8.10;99.90;;;;;;5061347;28;20045;-72
2022/03/26 00:10:01;;;;;;;110.88;52.80;;;8.20;99.90;;;;;;5029618;28;20096;-73
2022/03/26 00:12:26;;;;;;;110.70;54.20;;;8.20;99.90;;;;;;5081111;28;20048;-72
2022/03/26 00:14:52;;;;;;;106.45;50.00;;;8.20;99.90;;;;;;5062898;28;20226;-72
2022/03/26 00:17:18;;;;;;;107.45;49.58;;;8.20;99.90;;;;;;5052091;28;20060;-72
2022/03/26 00:19:43;;;;;;;110.32;52.22;;;8.30;99.90;;;;;;5071269;28;20040;-73
2022/03/26 00:22:09;;;;;;;109.03;51.63;;;8.20;99.90;;;;;;5079346;28;20043;-72
2022/03/26 00:24:35;;;;;;;114.07;55.22;;;8.30;99.90;;;;;;5045619;28;20346;-73
2022/03/26 00:27:01;;;;;;;116.93;54.50;;;8.40;99.90;;;;;;5061891;28;20323;-73
2022/03/26 00:29:26;;;;;;;117.45;55.03;;;8.50;99.90;;;;;;5049799;28;20037;-71
2022/03/26 00:31:52;;;;;;;119.07;54.13;;;8.60;99.90;;;;;;5029045;28;20048;-73
2022/03/26 00:34:18;;;;;;;118.32;54.15;;;8.50;99.90;;;;;;5047392;28;20044;-73
2022/03/26 00:36:44;;;;;;;117.18;56.33;;;8.60;99.90;;;;;;5079692;28;20033;-72
2022/03/26 00:39:09;;;;;;;123.70;58.17;;;8.60;99.90;;;;;;5060352;28;20123;-72
2022/03/26 00:41:35;;;;;;;115.85;55.03;;;8.80;99.90;;;;;;5079541;28;20033;-74
2022/03/26 00:44:01;;;;;;;115.63;53.72;;;8.70;99.90;;;;;;5060728;28;20444;-74
2022/03/26 00:46:27;;;;;;;119.57;54.40;;;8.70;99.90;;;;;;5079518;28;20070;-74
2022/03/26 00:48:53;;;;;;;120.38;56.40;;;8.70;99.90;;;;;;5064417;28;20025;-73
2022/03/26 00:51:19;;;;;;;118.15;54.85;;;8.80;99.90;;;;;;5072475;28;20331;-74
2022/03/26 00:53:45;;;;;;;112.43;53.65;;;8.80;99.90;;;;;;5045911;28;20307;-73
2022/03/26 00:56:12;;;;;;;111.45;54.40;;;8.80;99.90;;;;;;5060419;28;20047;-73
2022/03/26 00:58:38;;;;;;;118.47;53.85;;;8.80;99.90;;;;;;5045028;28;20112;-72
2022/03/26 01:01:04;;;;;;;129.95;58.05;;;8.80;99.90;;;;;;5029454;28;20046;-73
2022/03/26 01:03:30;;;;;;;122.13;54.83;;;8.70;99.90;;;;;;5063960;28;20028;-73
2022/03/26 01:05:56;;;;;;;119.32;56.47;;;8.70;99.90;;;;;;5055859;28;20036;-73
2022/03/26 01:08:22;;;;;;;121.43;52.17;;;8.70;99.90;;;;;;5043882;28;20112;-73
2022/03/26 01:10:48;;;;;;;120.50;56.50;;;8.70;99.90;;;;;;5052386;28;20041;-74
2022/03/26 01:13:20;;;;;;;118.82;55.83;;;8.70;99.90;;;;;;5078599;28;20223;-74
2022/03/26 01:15:45;;;;;;;115.22;54.42;;;9.70;99.90;;;;;;5070723;28;20028;-73
2022/03/26 01:18:11;;;;;;;122.82;56.15;;;8.70;99.90;;;;;;5061894;28;20218;-74
2022/03/26 01:20:37;;;;;;;115.13;53.90;;;8.80;99.90;;;;;;5037324;28;20444;-74
2022/03/26 01:23:04;;;;;;;113.32;53.85;;;8.70;99.90;;;;;;5078654;28;20119;-74
2022/03/26 01:25:30;;;;;;;118.82;56.28;;;8.70;99.90;;;;;;5073881;28;20076;-73
2022/03/26 01:27:55;;;;;;;124.80;55.60;;;8.70;99.90;;;;;;5064690;28;20041;-74
2022/03/26 01:30:21;;;;;;;117.10;54.45;;;8.70;99.90;;;;;;5043406;28;20037;-73
2022/03/26 01:32:48;;;;;;;119.93;55.38;;;8.70;99.90;;;;;;5028636;28;20032;-74
2022/03/26 01:35:14;;;;;;;117.82;53.70;;;8.60;99.90;;;;;;5044261;28;20215;-73
2022/03/26 01:37:40;;;;;;;136.43;62.90;;;8.60;99.90;;;;;;5045811;28;20044;-73
2022/03/26 01:40:07;;;;;;;131.70;60.33;;;8.70;99.90;;;;;;5059912;28;20039;-74
2022/03/26 01:42:33;;;;;;;146.32;62.45;;;8.80;99.90;;;;;;5062363;28;20040;-74
2022/03/26 01:44:58;;;;;;;146.38;65.13;;;8.90;99.90;;;;;;5060930;28;20265;-73
2022/03/26 01:47:24;;;;;;;142.77;63.80;;;9.10;99.90;;;;;;5075307;28;20141;-73
2022/03/26 01:49:52;;;;;;;143.63;62.42;;;9.10;99.90;;;;;;5045421;28;20036;-73
2022/03/26 01:52:18;;;;;;;149.77;63.83;;;9.20;99.90;;;;;;5028749;28;20044;-73
2022/03/26 01:54:44;;;;;;;139.18;63.63;;;9.30;99.90;;;;;;5026728;28;20079;-74
2022/03/26 01:57:11;;;;;;;149.38;68.82;;;9.30;99.90;;;;;;5042666;28;20040;-74
2022/03/26 01:59:38;;;;;;;149.75;67.85;;;9.40;99.90;;;;;;5076737;28;20262;-74
2022/03/26 02:02:05;;;;;;;152.35;68.22;;;9.40;99.90;;;;;;5061161;28;20036;-74
2022/03/26 02:04:31;;;;;;;154.13;67.63;;;9.50;99.90;;;;;;5051681;28;20261;-75
2022/03/26 02:06:56;;;;;;;150.88;66.93;;;9.60;99.90;;;;;;5062607;28;20044;-75
2022/03/26 02:09:22;;;;;;;144.05;63.47;;;9.60;99.90;;;;;;5061472;28;20096;-73
2022/03/26 02:11:48;;;;;;;141.98;63.65;;;9.70;99.90;;;;;;5065303;28;20064;-73
2022/03/26 02:14:15;;;;;;;148.77;65.85;;;9.80;99.90;;;;;;5044650;28;20066;-72
2022/03/26 02:16:43;;;;;;;145.50;64.65;;;9.80;99.90;;;;;;5078167;28;20089;-72
2022/03/26 02:19:09;;;;;;;139.48;62.20;;;9.90;99.90;;;;;;5062667;28;20319;-72
2022/03/26 02:21:37;;;;;;;136.43;62.58;;;9.80;99.90;;;;;;5063409;28;20047;-72
2022/03/26 02:24:06;;;;;;;138.10;63.58;;;9.80;99.90;;;;;;5061491;28;20057;-72
2022/03/26 02:26:32;;;;;;;139.15;63.70;;;9.90;99.90;;;;;;5060292;28;20098;-73
2022/03/26 02:29:08;;;;;;;151.70;68.60;;;9.90;99.90;;;;;;5055809;28;20032;-72
2022/03/26 02:31:35;;;;;;;145.75;61.67;;;10.00;99.90;;;;;;5034800;28;20044;-72
2022/03/26 02:34:01;;;;;;;159.73;66.95;;;10.00;99.90;;;;;;5072465;28;20345;-72
2022/03/26 02:36:27;;;;;;;178.52;74.22;;;10.20;99.90;;;;;;5074031;28;20052;-72
2022/03/26 02:38:52;;;;;;;170.13;71.32;;;10.40;99.90;;;;;;5029633;28;20231;-72
2022/03/26 02:41:18;;;;;;;169.40;70.60;;;10.50;99.90;;;;;;5023870;28;20029;-72
2022/03/26 02:43:43;;;;;;;153.57;67.85;;;10.50;99.90;;;;;;5042159;28;20040;-73
2022/03/26 02:46:09;;;;;;;161.73;67.22;;;10.50;99.90;;;;;;5029369;28;20044;-73
2022/03/26 02:48:35;;;;;;;144.88;62.08;;;10.60;99.90;;;;;;5047272;28;20335;-72
2022/03/26 02:51:01;;;;;;;140.13;60.22;;;10.40;99.90;;;;;;5046915;28;20108;-72
2022/03/26 02:53:27;;;;;;;145.63;64.80;;;10.40;99.90;;;;;;5075161;28;20200;-72
2022/03/26 02:55:53;;;;;;;153.32;64.35;;;10.40;99.90;;;;;;5044775;28;20160;-73
2022/03/26 02:58:19;;;;;;;165.32;70.22;;;10.50;99.90;;;;;;5057466;28;20051;-73
2022/03/26 03:00:45;;;;;;;160.50;69.93;;;10.70;99.90;;;;;;5059805;28;20033;-72
2022/03/26 03:03:10;;;;;;;171.00;68.53;;;10.70;99.90;;;;;;5059622;28;20060;-72
2022/03/26 03:05:36;;;;;;;157.68;66.25;;;10.80;99.90;;;;;;5058431;28;20041;-73
2022/03/26 03:08:02;;;;;;;163.23;70.90;;;10.80;99.90;;;;;;5067616;28;20071;-72
2022/03/26 03:10:28;;;;;;;164.38;71.20;;;10.80;99.90;;;;;;5063272;28;20226;-72
2022/03/26 03:12:54;;;;;;;153.98;66.78;;;10.80;99.90;;;;;;5075706;28;20040;-72
2022/03/26 03:15:21;;;;;;;165.60;71.28;;;10.90;99.90;;;;;;5069082;28;20169;-73
2022/03/26 03:17:48;;;;;;;162.60;69.65;;;10.80;99.90;;;;;;5068337;28;20037;-73
2022/03/26 03:20:15;;;;;;;161.75;68.63;;;10.90;99.90;;;;;;5047615;28;20040;-73
2022/03/26 03:22:43;;;;;;;151.23;68.00;;;10.90;99.90;;;;;;5061061;28;20068;-73
2022/03/26 03:25:10;;;;;;;159.30;67.53;;;11.00;99.90;;;;;;5062685;28;20048;-73
2022/03/26 03:27:37;;;;;;;161.35;66.60;;;11.00;99.90;;;;;;5061235;28;20062;-73
2022/03/26 03:30:04;;;;;;;143.70;61.95;;;11.10;99.90;;;;;;5066614;28;20041;-73
2022/03/26 03:32:30;;;;;;;125.45;55.78;;;11.00;99.90;;;;;;5044084;28;20037;-73
2022/03/26 03:34:56;;;;;;;129.43;58.05;;;10.80;99.90;;;;;;5061885;28;20063;-73
2022/03/26 03:37:23;;;;;;;122.50;54.42;;;10.80;99.90;;;;;;5055721;28;20047;-72
2022/03/26 03:39:49;;;;;;;126.97;60.42;;;10.70;99.90;;;;;;5059399;28;20041;-72
2022/03/26 03:42:14;;;;;;;129.27;57.97;;;10.70;99.90;;;;;;5027053;28;20094;-72
2022/03/26 03:44:40;;;;;;;135.93;59.08;;;10.70;99.90;;;;;;5065230;28;20083;-73
2022/03/26 03:47:06;;;;;;;126.18;59.55;;;10.60;99.90;;;;;;5044444;28;20246;-72
2022/03/26 03:49:32;;;;;;;106.07;50.08;;;10.40;99.90;;;;;;5055694;28;20285;-73
2022/03/26 03:52:01;;;;;;;98.32;47.58;;;9.90;99.90;;;;;;5071872;28;20204;-73
2022/03/26 03:54:27;;;;;;;95.57;46.90;;;9.50;99.90;;;;;;5043586;28;20129;-74
2022/03/26 03:56:53;;;;;;;99.07;48.75;;;9.30;99.90;;;;;;5067061;28;20047;-72
2022/03/26 03:59:22;;;;;;;113.47;52.28;;;9.50;99.90;;;;;;5038896;28;20044;-72
2022/03/26 04:01:47;;;;;;;106.88;50.85;;;9.60;99.90;;;;;;5054844;28;20036;-72
2022/03/26 04:04:13;;;;;;;117.40;55.50;;;9.50;99.90;;;;;;5051610;28;20212;-72
2022/03/26 04:06:39;;;;;;;124.95;59.15;;;9.60;99.90;;;;;;5046552;28;20049;-72
2022/03/26 04:09:04;;;;;;;132.63;61.58;;;9.80;99.90;;;;;;5043646;28;20049;-72
2022/03/26 04:11:30;;;;;;;134.10;61.78;;;9.90;99.90;;;;;;5064286;28;20040;-73
2022/03/26 04:13:56;;;;;;;134.27;61.67;;;10.00;99.90;;;;;;5059961;28;20239;-73
2022/03/26 04:16:23;;;;;;;150.15;66.20;;;10.00;99.90;;;;;;5051133;28;20134;-74
2022/03/26 04:18:49;;;;;;;146.00;63.38;;;10.20;99.90;;;;;;5055496;28;20338;-73
2022/03/26 04:21:16;;;;;;;145.18;67.82;;;10.20;99.90;;;;;;5023765;28;20036;-73
2022/03/26 04:23:42;;;;;;;161.98;70.78;;;10.20;99.90;;;;;;5050577;28;20288;-74
2022/03/26 04:26:09;;;;;;;158.07;69.07;;;10.30;99.90;;;;;;5057324;28;20111;-74
2022/03/26 04:28:35;;;;;;;159.48;70.90;;;10.40;99.90;;;;;;5071962;28;20041;-73
2022/03/26 04:31:02;;;;;;;156.27;69.82;;;10.40;99.90;;;;;;5042764;28;20049;-74
2022/03/26 04:33:27;;;;;;;166.25;72.82;;;10.50;99.90;;;;;;5064068;28;20033;-72
2022/03/26 04:35:53;;;;;;;149.57;66.10;;;10.50;99.90;;;;;;5058600;28;20184;-73
2022/03/26 04:38:19;;;;;;;161.90;70.38;;;10.60;99.90;;;;;;5044107;28;20045;-73
2022/03/26 04:40:46;;;;;;;150.00;65.32;;;10.50;99.90;;;;;;5073965;28;20048;-72
2022/03/26 04:43:11;;;;;;;152.35;64.00;;;10.70;99.90;;;;;;5071932;28;20055;-73
2022/03/26 04:45:37;;;;;;;160.80;70.35;;;10.70;99.90;;;;;;5058617;28;20044;-72
2022/03/26 04:48:03;;;;;;;140.20;62.58;;;10.60;99.90;;;;;;5069697;28;20072;-72
2022/03/26 04:50:29;;;;;;;157.07;65.32;;;10.50;99.90;;;;;;5072853;28;20071;-72
2022/03/26 04:52:55;;;;;;;150.82;67.90;;;10.50;99.90;;;;;;5048939;28;20028;-73
2022/03/26 04:55:21;;;;;;;148.20;66.50;;;10.40;99.90;;;;;;5050330;28;20128;-72
2022/03/26 04:57:51;;;;;;;163.43;71.07;;;10.60;99.90;;;;;;5051774;28;20083;-72
2022/03/26 05:00:19;;;;;;;155.63;69.63;;;10.40;99.90;;;;;;5067731;28;20107;-73
2022/03/26 05:02:45;;;;;;;152.50;68.53;;;10.50;99.90;;;;;;5048509;28;20045;-72
2022/03/26 05:05:13;;;;;;;157.93;71.10;;;10.50;99.90;;;;;;5026509;28;20048;-73
2022/03/26 05:07:48;;;;;;;160.00;71.00;;;10.60;99.90;;;;;;5064783;28;20208;-72
2022/03/26 05:10:21;;;;;;;150.55;65.70;;;10.60;99.90;;;;;;5042710;28;20053;-73
2022/03/26 05:12:49;;;;;;;168.73;72.40;;;10.70;99.90;;;;;;5065435;28;20107;-73
2022/03/26 05:15:16;;;;;;;166.35;70.45;;;10.60;99.90;;;;;;5054899;28;20051;-72
2022/03/26 05:17:42;;;;;;;165.65;70.07;;;10.80;99.90;;;;;;5060221;28;20398;-72
2022/03/26 05:20:09;;;;;;;143.93;62.20;;;10.70;99.90;;;;;;5061690;28;20036;-73
2022/03/26 05:22:35;;;;;;;161.18;70.97;;;10.80;99.90;;;;;;5044695;28;20135;-73
2022/03/26 05:25:02;;;;;;;167.50;72.07;;;10.60;99.90;;;;;;5054671;28;20116;-74
2022/03/26 05:27:28;;;;;;;160.95;71.18;;;10.50;99.90;;;;;;5039561;28;20083;-73
2022/03/26 05:29:54;;;;;;;161.07;68.00;;;10.90;99.90;;;;;;5021764;28;20041;-73
2022/03/26 05:32:19;;;;;;;173.30;75.30;;;11.00;99.90;;;;;;5026102;28;20109;-74
2022/03/26 05:34:45;;;;;;;162.40;69.68;;;11.10;99.90;;;;;;5036849;28;20033;-74
2022/03/26 05:37:12;;;;;;;171.02;72.75;;;10.80;99.90;;;;;;5040812;28;20041;-73
2022/03/26 05:39:38;;;;;;;167.52;73.13;;;11.00;99.90;;;;;;5039910;28;20040;-72
2022/03/26 05:42:04;;;;;;;181.75;75.00;;;10.90;99.90;;;;;;5040825;28;20114;-73
2022/03/26 05:44:30;;;;;;;165.70;73.10;;;11.20;99.90;;;;;;5024677;28;20290;-73
2022/03/26 05:46:56;;;;;;;150.85;66.15;;;11.40;99.90;;;;;;5031815;28;20041;-72
2022/03/26 05:49:22;;;;;;;161.55;69.25;;;11.40;99.90;;;;;;5005068;28;20100;-72
2022/03/26 05:51:48;;;;;;;156.07;67.90;;;11.40;99.90;;;;;;5034155;28;20033;-73
2022/03/26 05:54:14;;;;;;;166.77;69.18;;;11.40;99.90;;;;;;5065182;28;20382;-74
2022/03/26 05:56:40;;;;;;;147.10;63.03;;;11.30;99.90;;;;;;5025601;28;20037;-73
2022/03/26 05:59:10;;;;;;;165.27;72.72;;;11.50;99.90;;;;;;5019724;28;20095;-73
2022/03/26 06:01:36;;;;;;;164.88;72.10;;;11.70;99.90;;;;;;5024454;28;20347;-72
2022/03/26 06:04:02;;;;;;;173.68;75.45;;;11.70;99.90;;;;;;5065297;28;20107;-73
2022/03/26 06:06:28;;;;;;;179.90;76.68;;;11.70;99.90;;;;;;5052923;28;20200;-73
2022/03/26 06:08:54;;;;;;;178.95;77.75;;;11.90;99.90;;;;;;5046838;28;20040;-74
2022/03/26 06:11:19;;;;;;;176.27;76.90;;;12.10;99.90;;;;;;5062755;28;20261;-74
2022/03/26 06:13:45;;;;;;;164.00;73.05;;;12.00;99.90;;;;;;5059078;28;20052;-73
2022/03/26 06:16:11;;;;;;;154.10;72.43;;;12.30;99.90;;;;;;5008016;28;20037;-74
2022/03/26 06:18:37;;;;;;;159.25;70.00;;;12.20;99.90;;;;;;5024667;28;20049;-74
2022/03/26 06:21:05;;;;;;;155.05;71.90;;;12.50;99.90;;;;;;5036526;28;20227;-74
2022/03/26 06:23:32;;;;;;;145.98;66.25;;;12.40;99.90;;;;;;5040863;28;20072;-73
2022/03/26 06:25:58;;;;;;;136.63;62.85;;;12.70;99.90;;;;;;5062544;28;20061;-73
2022/03/26 06:28:24;;;;;;;145.43;67.55;;;12.60;99.90;;;;;;5073277;28;20282;-74
2022/03/26 06:30:51;;;;;;;136.50;64.00;;;13.00;99.90;;;;;;5065983;28;20114;-74
2022/03/26 06:33:18;;;;;;;128.63;62.80;;;13.10;99.90;;;;;;5061366;28;20037;-73
2022/03/26 06:35:46;;;;;;;116.80;57.95;;;13.20;99.90;;;;;;5034426;28;20217;-74
2022/03/26 06:38:12;;;;;;;114.28;55.42;;;13.40;99.90;;;;;;5072798;28;20051;-74
2022/03/26 06:40:39;;;;;;;128.93;60.85;;;13.30;99.90;;;;;;5066058;28;20044;-74
2022/03/26 06:43:06;;;;;;;129.05;58.25;;;13.70;99.90;;;;;;5081735;28;20215;-75
2022/03/26 06:45:33;;;;;;;119.07;57.17;;;13.60;99.90;;;;;;5063399;28;20040;-74
2022/03/26 06:47:58;;;;;;;118.32;56.45;;;13.70;99.90;;;;;;5062710;28;20080;-72
2022/03/26 06:50:24;;;;;;;116.50;55.47;;;14.20;99.90;;;;;;5046042;28;20041;-73
2022/03/26 06:52:51;;;;;;;107.65;51.13;;;14.20;99.90;;;;;;5062058;28;20083;-74
2022/03/26 06:55:17;;;;;;;103.28;52.20;;;14.50;99.90;;;;;;5065539;28;20362;-74
2022/03/26 06:57:42;;;;;;;98.95;49.25;;;14.50;99.90;;;;;;5048113;28;20266;-72
2022/03/26 07:00:13;;;;;;;92.30;48.40;;;14.60;99.90;;;;;;5048205;28;20143;-71
2022/03/26 07:02:39;;;;;;;97.20;49.22;;;14.50;99.90;;;;;;5081079;28;20127;-71
2022/03/26 07:05:05;;;;;;;96.85;48.75;;;14.80;99.90;;;;;;5076832;28;20048;-73
2022/03/26 07:07:31;;;;;;;93.60;47.83;;;14.70;99.90;;;;;;5049947;28;20222;-73
2022/03/26 07:09:58;;;;;;;91.90;50.13;;;15.10;99.90;;;;;;5048491;28;20060;-73
2022/03/26 07:12:24;;;;;;;90.15;46.85;;;15.00;99.90;;;;;;5055700;28;20040;-74
2022/03/26 07:14:49;;;;;;;91.70;48.55;;;15.10;99.90;;;;;;5062000;28;20139;-74
2022/03/26 07:17:19;;;;;;;90.35;46.78;;;15.10;99.90;;;;;;5029164;28;20037;-74
2022/03/26 07:19:48;;;;;;;88.72;47.15;;;15.40;99.90;;;;;;5069905;28;20219;-75
2022/03/26 07:22:14;;;;;;;88.30;45.67;;;15.10;99.90;;;;;;5066750;28;20040;-75
2022/03/26 07:24:40;;;;;;;86.38;47.75;;;15.20;99.90;;;;;;5064629;28;20354;-75
2022/03/26 07:27:06;;;;;;;82.53;45.03;;;15.60;99.90;;;;;;5065496;28;20036;-76
2022/03/26 07:29:38;;;;;;;81.28;44.15;;;15.70;99.90;;;;;;5056347;28;20299;-74
2022/03/26 07:32:09;;;;;;;77.53;41.72;;;15.50;99.90;;;;;;5071841;28;20041;-74
2022/03/26 07:34:35;;;;;;;77.38;42.58;;;15.60;99.90;;;;;;5064659;28;20086;-74
2022/03/26 07:37:01;;;;;;;78.40;41.60;;;15.90;99.90;;;;;;5048419;28;20044;-74
2022/03/26 07:39:27;;;;;;;70.40;41.35;;;15.60;99.90;;;;;;5072305;28;20037;-72
2022/03/26 07:41:53;;;;;;;71.25;39.40;;;15.60;99.90;;;;;;5066678;28;20216;-72
2022/03/26 07:44:18;;;;;;;71.38;39.92;;;15.30;99.90;;;;;;5061078;28;20326;-74
2022/03/26 07:46:44;;;;;;;70.30;38.45;;;15.50;99.90;;;;;;5080814;28;20120;-74
2022/03/26 07:49:10;;;;;;;70.60;37.92;;;15.00;99.90;;;;;;5041476;28;20304;-73
2022/03/26 07:51:35;;;;;;;67.35;36.80;;;14.70;99.90;;;;;;5079741;28;20339;-73
2022/03/26 07:54:01;;;;;;;67.72;36.63;;;14.60;99.90;;;;;;5044537;28;20087;-73
2022/03/26 07:56:27;;;;;;;60.70;34.75;;;14.20;99.90;;;;;;5044739;28;20233;-73
2022/03/26 07:58:54;;;;;;;63.55;36.17;;;13.70;99.90;;;;;;5044820;28;20076;-73
2022/03/26 08:01:19;;;;;;;56.47;35.00;;;13.50;99.90;;;;;;5066519;28;20037;-73
2022/03/26 08:03:45;;;;;;;63.72;36.10;;;13.30;99.90;;;;;;5066225;28;20040;-73
2022/03/26 08:06:11;;;;;;;59.42;35.80;;;13.10;99.90;;;;;;5058852;28;20108;-72
2022/03/26 08:08:36;;;;;;;64.13;36.00;;;12.80;99.90;;;;;;5060797;28;20049;-73
2022/03/26 08:11:02;;;;;;;66.45;38.17;;;12.50;99.90;;;;;;5044825;28;20414;-73
2022/03/26 08:13:28;;;;;;;68.50;38.67;;;12.70;99.90;;;;;;5073641;28;20032;-73
2022/03/26 08:15:55;;;;;;;67.45;38.60;;;12.80;99.90;;;;;;5060276;28;20365;-71
2022/03/26 08:18:20;;;;;;;63.80;38.50;;;12.60;99.90;;;;;;5043918;28;20041;-72
2022/03/26 08:20:46;;;;;;;66.55;39.58;;;12.40;99.90;;;;;;5057154;28;20046;-72
2022/03/26 08:23:12;;;;;;;61.75;37.95;;;12.60;99.90;;;;;;5054674;28;20060;-72
2022/03/26 08:28:22;;;;;;;61.88;37.63;;;12.60;99.90;;;;;;5047175;28;20060;-72
2022/03/26 08:30:48;;;;;;;64.90;38.05;;;12.70;99.90;;;;;;5043909;28;20037;-72
2022/03/26 08:33:13;;;;;;;67.40;39.60;;;12.80;99.90;;;;;;5061412;28;20319;-72
2022/03/26 08:35:41;;;;;;;60.65;36.78;;;12.90;99.90;;;;;;5063294;28;20227;-72
2022/03/26 08:38:07;;;;;;;65.47;37.13;;;13.00;99.90;;;;;;5079158;28;20044;-71
2022/03/26 08:40:34;;;;;;;63.25;37.03;;;12.90;99.90;;;;;;5071887;28;20039;-72
2022/03/26 08:43:00;;;;;;;62.88;38.75;;;13.10;99.90;;;;;;5066910;28;20342;-73
2022/03/26 08:45:26;;;;;;;64.70;38.75;;;13.10;99.90;;;;;;5066767;28;20051;-73
2022/03/26 08:47:52;;;;;;;62.70;38.20;;;13.10;99.90;;;;;;5043299;28;20151;-72
2022/03/26 08:50:18;;;;;;;64.32;37.92;;;13.40;99.90;;;;;;5064053;28;20032;-72
2022/03/26 08:52:47;;;;;;;61.58;35.88;;;13.30;99.90;;;;;;5046619;28;20123;-71
2022/03/26 08:55:16;;;;;;;60.53;35.90;;;13.40;99.90;;;;;;5080300;28;20275;-72
2022/03/26 08:57:42;;;;;;;53.08;34.45;;;13.40;99.90;;;;;;5072609;28;20051;-73
2022/03/26 09:00:09;;;;;;;60.58;36.72;;;13.40;99.90;;;;;;5043213;28;20047;-71
2022/03/26 09:02:36;;;;;;;59.15;36.22;;;13.70;99.90;;;;;;5035533;28;20048;-72
2022/03/26 09:05:02;;;;;;;57.78;35.88;;;13.80;99.90;;;;;;5067541;28;20464;-72
2022/03/26 09:07:27;;;;;;;51.63;33.08;;;13.60;99.90;;;;;;5055672;28;20155;-73
2022/03/26 09:09:53;;;;;;;55.03;33.03;;;13.80;99.90;;;;;;5045004;28;20037;-73
2022/03/26 09:12:19;;;;;;;54.17;33.85;;;14.00;99.90;;;;;;5052105;28;20080;-74
2022/03/26 09:14:44;;;;;;;53.10;32.20;;;14.10;99.90;;;;;;5055547;28;20351;-73
2022/03/26 09:17:10;;;;;;;52.17;31.85;;;13.90;99.90;;;;;;5052701;28;20053;-73
2022/03/26 09:19:36;;;;;;;45.85;29.17;;;13.90;99.90;;;;;;5050590;28;20230;-73
2022/03/26 09:22:03;;;;;;;45.70;29.73;;;13.90;99.90;;;;;;5051389;28;20106;-71
2022/03/26 09:24:29;;;;;;;43.40;28.75;;;14.10;99.90;;;;;;5060808;28;20071;-72
2022/03/26 09:26:55;;;;;;;39.80;27.15;;;14.20;99.90;;;;;;5057343;28;20423;-72
2022/03/26 09:29:21;;;;;;;42.20;27.38;;;14.50;99.90;;;;;;5039394;28;20041;-72
2022/03/26 09:31:47;;;;;;;32.63;20.17;;;14.60;99.90;;;;;;5055873;28;20048;-72
2022/03/26 09:34:12;;;;;;;29.48;19.17;;;14.60;99.90;;;;;;5042046;28;20048;-72
2022/03/26 09:36:38;;;;;;;26.05;16.85;;;14.50;99.90;;;;;;5053742;28;20208;-73
2022/03/26 09:39:04;;;;;;;26.10;15.90;;;14.70;99.90;;;;;;5056036;28;20037;-73
2022/03/26 09:41:31;;;;;;;22.73;14.45;;;14.70;99.90;;;;;;5056906;28;20041;-73
2022/03/26 09:43:58;;;;;;;23.05;13.95;;;14.80;99.90;;;;;;5039581;28;20087;-73
2022/03/26 09:46:24;;;;;;;23.45;16.02;;;14.90;99.90;;;;;;5072486;28;20108;-74
2022/03/26 09:48:50;;;;;;;22.95;15.45;;;15.20;99.90;;;;;;5058758;28;20040;-72
2022/03/26 09:51:21;;;;;;;26.98;16.27;;;15.30;99.90;;;;;;5075926;28;20040;-72
2022/03/26 09:53:50;;;;;;;21.33;14.98;;;15.60;99.90;;;;;;5066150;28;20040;-71
2022/03/26 09:56:17;;;;;;;27.92;16.65;;;15.50;99.90;;;;;;5069659;28;20365;-73
2022/03/26 09:58:43;;;;;;;21.55;14.93;;;15.50;99.90;;;;;;5075444;28;20369;-72
2022/03/26 10:01:09;;;;;;;25.38;15.77;;;15.30;99.90;;;;;;5058739;28;20055;-73
2022/03/26 10:03:38;;;;;;;21.92;13.77;;;15.50;99.90;;;;;;5052333;28;20049;-73
2022/03/26 10:06:07;;;;;;;19.83;14.07;;;15.70;99.90;;;;;;5038775;28;20052;-73
2022/03/26 10:08:39;;;;;;;15.23;11.07;;;15.80;99.90;;;;;;5042004;28;20246;-72
2022/03/26 10:11:09;;;;;;;14.45;10.32;;;15.60;99.90;;;;;;5022372;28;20037;-74
2022/03/26 10:13:43;;;;;;;11.07;9.30;;;15.80;99.90;;;;;;5057969;28;20060;-73
2022/03/26 10:16:13;;;;;;;18.38;11.75;;;16.00;99.90;;;;;;5071183;28;20040;-74
2022/03/26 10:18:41;;;;;;;16.08;10.40;;;15.90;99.90;;;;;;5058641;28;20211;-73
2022/03/26 10:21:12;;;;;;;15.18;10.07;;;16.00;99.90;;;;;;5075406;28;20080;-74
2022/03/26 10:23:48;;;;;;;13.77;9.35;;;15.70;99.90;;;;;;5058435;28;20546;-73
2022/03/26 10:26:13;;;;;;;15.10;10.10;;;15.60;99.90;;;;;;5066016;28;20048;-74
2022/03/26 10:28:40;;;;;;;13.32;9.43;;;15.70;99.90;;;;;;5056367;28;20342;-73
2022/03/26 10:34:13;;;;;;;12.82;9.15;;;15.50;99.90;;;;;;5058461;28;20137;-74
2022/03/26 10:36:43;;;;;;;13.32;8.57;;;15.70;99.90;;;;;;5046602;28;20054;-77
2022/03/26 10:39:22;;;;;;;11.43;8.02;;;15.70;99.90;;;;;;5058194;28;20048;-74
2022/03/26 10:41:49;;;;;;;10.88;7.68;;;15.70;99.90;;;;;;5074815;28;20084;-73
2022/03/26 10:44:22;;;;;;;10.13;7.18;;;15.90;99.90;;;;;;5059751;28;20044;-74
2022/03/26 10:46:54;;;;;;;12.35;7.68;;;15.60;99.90;;;;;;5071100;28;20122;-71
2022/03/26 10:49:36;;;;;;;12.52;8.07;;;15.60;99.90;;;;;;5057499;28;20052;-72
2022/03/26 10:52:20;;;;;;;12.95;7.60;;;15.60;99.90;;;;;;5042081;28;20048;-72
2022/03/26 10:54:47;;;;;;;12.37;8.80;;;15.40;99.90;;;;;;5057215;28;20323;-73
2022/03/26 10:57:13;;;;;;;11.75;8.45;;;15.60;99.90;;;;;;5034832;28;20593;-75
2022/03/26 10:59:39;;;;;;;12.30;8.60;;;15.60;99.90;;;;;;5038136;28;20045;-75
2022/03/26 11:02:04;;;;;;;11.55;8.30;;;15.70;99.90;;;;;;5021002;28;20106;-73
2022/03/26 11:04:30;;;;;;;11.73;8.00;;;15.60;99.90;;;;;;5021375;28;20045;-75
2022/03/26 11:06:57;;;;;;;10.45;7.80;;;15.70;99.90;;;;;;5051575;28;20064;-74
2022/03/26 11:09:25;;;;;;;9.65;6.70;;;15.70;99.90;;;;;;5063606;28;20062;-74
2022/03/26 11:11:52;;;;;;;10.55;7.15;;;15.70;99.90;;;;;;5057664;28;20076;-74
2022/03/26 11:14:25;;;;;;;9.15;6.97;;;15.90;99.90;;;;;;5057590;28;20048;-74
2022/03/26 11:16:58;;;;;;;10.45;7.25;;;15.80;99.90;;;;;;5069735;28;20044;-74
2022/03/26 11:20:01;;;;;;;8.70;6.65;;;15.80;99.90;;;;;;5056388;28;20055;-74
2022/03/26 11:22:26;;;;;;;8.30;5.40;;;15.70;99.90;;;;;;5073605;28;20045;-75
2022/03/26 11:24:58;;;;;;;7.28;4.90;;;15.50;99.90;;;;;;5058772;28;20060;-73
2022/03/26 11:27:48;;;;;;;7.10;5.35;;;15.50;99.90;;;;;;5061836;28;20127;-72
2022/03/26 11:30:38;;;;;;;7.05;4.28;;;15.60;99.90;;;;;;5060534;28;20247;-73
2022/03/26 11:33:12;;;;;;;7.35;4.85;;;15.80;99.90;;;;;;5055971;28;20032;-73
2022/03/26 11:35:55;;;;;;;;;;;15.80;99.90;;;;;;5059185;28;20057;-72
2022/03/26 11:38:23;;;;;;;8.00;5.30;;;15.80;99.90;;;;;;5040529;28;20212;-74
2022/03/26 11:40:50;;;;;;;7.40;5.50;;;15.90;99.90;;;;;;5066952;28;20059;-74
2022/03/26 11:43:21;;;;;;;7.60;5.53;;;15.70;99.90;;;;;;5075243;28;20052;-72
2022/03/26 11:51:30;;;;;;;10.25;6.00;;;16.00;99.90;;;;;;5046137;28;20056;-71
2022/03/26 11:54:18;;;;;;;7.97;6.13;;;15.90;99.90;;;;;;5039402;28;20086;-72
2022/03/26 11:56:46;;;;;;;9.93;6.75;;;16.20;99.90;;;;;;5054931;28;20277;-74
2022/03/26 11:59:20;;;;;;;8.88;6.55;;;16.10;99.90;;;;;;5057014;28;20104;-72
2022/03/26 12:01:50;;;;;;;10.98;7.72;;;16.00;99.90;;;;;;5075278;28;20045;-71
2022/03/26 12:04:18;;;;;;;9.65;7.20;;;15.60;99.90;;;;;;5058607;28;20090;-73
2022/03/26 12:06:54;;;;;;;7.75;6.00;;;15.30;99.90;;;;;;5074869;28;20664;-73
2022/03/26 12:09:35;;;;;;;9.18;6.50;;;15.30;99.90;;;;;;5073577;28;20071;-73
2022/03/26 12:12:08;;;;;;;10.60;6.68;;;15.10;99.90;;;;;;5073244;28;20040;-73
2022/03/26 12:15:02;;;;;;;9.55;6.40;;;15.30;99.90;;;;;;5073626;28;20052;-73
2022/03/26 12:17:44;;;;;;;10.50;6.65;;;15.30;99.90;;;;;;5029083;28;20076;-73
2022/03/26 12:20:42;;;;;;;6.72;4.55;;;14.90;99.90;;;;;;5088338;28;20270;-73
2022/03/26 12:23:15;;;;;;;7.47;4.75;;;15.20;99.90;;;;;;5062673;28;20052;-72
2022/03/26 12:25:49;;;;;;;6.18;3.95;;;14.80;99.90;;;;;;5056192;28;20048;-70
2022/03/26 12:28:30;;;;;;;4.28;3.20;;;14.50;99.90;;;;;;5055988;28;20319;-72
2022/03/26 12:30:58;;;;;;;6.53;4.25;;;14.40;99.90;;;;;;5051282;28;20045;-72
2022/03/26 12:33:25;;;;;;;6.88;4.70;;;14.10;99.90;;;;;;5039574;28;20044;-73
2022/03/26 12:35:53;;;;;;;6.28;4.65;;;14.00;99.90;;;;;;5054881;28;20032;-74
2022/03/26 12:38:20;;;;;;;7.22;5.00;;;14.20;99.90;;;;;;5055857;28;20339;-73